Aérodrome :
LOGIN :

S'inscrire | Disclaimer

   EN    FR    IT 

 










Légende :    VFR   VFR Marginal   IFR   IFR Intensif   IFR Très Intensif
Visi : 
Plafond : 
>= 8 km
>= 3000ft
5 à 8 km
1000 à 3000 ft
1500m à 5 km
500 à 1000 ft
800 à 1500m
200 à 500 ft
< 800m
< 200 ft
Symboles :   Orages  Brouillard  Fortes neiges  Fortes précipitations  Vent > 20 kt
SIGMETs :   Divers  Orages  Givrage  Turbulence  Onde Orograph.  Cendres Volcan.







- Altitude de l'aérodrome : 13 ft
- Code IATA : LYX
- Voir les cartes d'approche


EGMD - Lydd

DERNIER METAR :
  • 210050Z AUTO 19021KT 9999 SCT028/// BKN034/// BKN039/// 16/13 Q1005

METARs EXPIRÉS :
  • 210020Z AUTO 19020KT 9999 FEW024/// BKN032/// OVC039/// 16/12 Q1006
  • 202350Z AUTO 19019KT 9999 SCT027/// BKN032/// BKN040/// 16/12 Q1006
  • 202320Z AUTO 19017KT 9999 BKN032/// BKN037/// 16/12 Q1007
  • 202250Z AUTO 19019KT 9999 NCD 16/11 Q1008
  • 202220Z AUTO 19018KT 9999 FEW026/// SCT047/// 15/11 Q1008

TAF TAF EGMD
Valide du 21 à 00h jusqu'au 21 à 09h UTC


202257Z 2100/2109 18022KT 9999 SCT025
TEMPO 2100/2103 7000 RA BKN014
PROB40
TEMPO 2100/2106 19025G35KT
PROB30
TEMPO 2100/2103 4000 RADZ BKN009
BECMG 2103/2106 22025KT
TEMPO 2103/2109 7000 SHRA
BECMG 2106/2109 22030G40KT
ATIS : +44 1797 322 422
Pas de NOTAMs connus pour ce terrain.
1 SIGMET publié pour la FIR London (EGTT) :
 
Turbulence forte
EGTT SIGMET 08 VALID 202200/210200 EGRR
EGTT LONDON FIR SEV TURB FCST W OF LINE N5132 W00700 - N4902 W00700 SFC/FL060 MOV E 20KT INTSF=



MET'MAP, la Météo Aéronautique d'un coup d'oeil ! - Copyright ORBIFLY Décembre 2007 - Disclaimer

ORBIFLY MET'MAP TEAM :

Programmation & Développement : Alexandra Zaïnal
Conception & Développement : Baudouin d'Aumeries
Co-Programmation & Développement : Marc-Olivier Méhu
Soutien technique & logistique : Manuel Goepfert

Contact : metmap@orbifly.com




SOURCES & CREDITS :

   NOAA